createdAt,value
2023-12-19T00:01:04.356Z,100.00
2023-12-19T00:04:08.018Z,100.00
2023-12-19T00:07:10.833Z,100.00
2023-12-19T00:10:14.014Z,100.00
2023-12-19T00:13:16.802Z,100.00
2023-12-19T00:16:19.498Z,100.00
2023-12-19T00:19:22.349Z,100.00
2023-12-19T00:22:25.644Z,100.00
2023-12-19T00:25:29.472Z,99.07
2023-12-19T00:28:33.267Z,99.08
2023-12-19T00:31:36.126Z,98.37
2023-12-19T00:34:39.226Z,97.81
2023-12-19T00:37:41.939Z,98.44
2023-12-19T00:40:44.707Z,98.72
2023-12-19T00:43:47.643Z,98.47
2023-12-19T00:46:50.367Z,97.48
2023-12-19T00:49:53.702Z,98.25
2023-12-19T00:52:59.510Z,98.03
2023-12-19T00:56:02.245Z,98.70
2023-12-19T00:59:04.929Z,99.76
2023-12-19T01:02:07.812Z,99.90
2023-12-19T01:05:10.578Z,99.15
2023-12-19T01:08:13.291Z,99.24
2023-12-19T01:11:16.055Z,100.00
2023-12-19T01:14:21.473Z,98.97
2023-12-19T01:17:24.208Z,97.86
2023-12-19T01:20:26.911Z,99.55
2023-12-19T01:23:29.641Z,99.88
2023-12-19T01:26:34.081Z,100.00
2023-12-19T01:29:36.862Z,100.00
2023-12-19T01:32:39.650Z,100.00
2023-12-19T01:35:42.698Z,100.00
2023-12-19T01:38:45.410Z,99.45
2023-12-19T01:41:48.113Z,98.81
2023-12-19T01:45:09.844Z,98.51
2023-12-19T01:48:13.893Z,98.76
2023-12-19T01:51:16.721Z,99.50
2023-12-19T01:54:20.843Z,100.00
2023-12-19T01:57:23.870Z,100.00
2023-12-19T02:00:26.781Z,100.00
2023-12-19T02:03:29.753Z,100.00
2023-12-19T02:06:36.139Z,100.00
2023-12-19T02:09:39.112Z,100.00
2023-12-19T02:12:43.180Z,100.00
2023-12-19T02:15:46.048Z,100.00
2023-12-19T02:19:07.054Z,99.23
2023-12-19T02:22:09.830Z,98.55
2023-12-19T02:25:12.711Z,98.89
2023-12-19T02:28:15.509Z,98.89
2023-12-19T02:31:18.257Z,98.80
2023-12-19T02:34:21.328Z,98.47
2023-12-19T02:37:24.053Z,97.90
2023-12-19T02:40:27.266Z,98.17
2023-12-19T02:43:29.929Z,97.38
2023-12-19T02:46:33.618Z,97.06
2023-12-19T02:49:36.435Z,99.60
2023-12-19T02:52:39.259Z,100.00
2023-12-19T02:55:43.362Z,100.00
2023-12-19T02:58:46.095Z,100.00
2023-12-19T03:01:51.532Z,100.00
2023-12-19T03:04:54.580Z,100.00
2023-12-19T03:07:57.888Z,100.00
2023-12-19T03:11:00.636Z,100.00
2023-12-19T03:14:03.344Z,100.00
2023-12-19T03:17:06.331Z,100.00
2023-12-19T03:20:09.958Z,100.00
2023-12-19T03:23:12.784Z,99.65
2023-12-19T03:26:15.507Z,99.68
2023-12-19T03:29:18.200Z,98.94
2023-12-19T03:32:20.973Z,97.42
2023-12-19T03:35:24.701Z,98.34
2023-12-19T03:38:27.460Z,99.08
2023-12-19T03:41:30.082Z,100.00
2023-12-19T03:44:33.286Z,100.00
2023-12-19T03:47:36.614Z,100.00
2023-12-19T03:50:39.278Z,100.00
2023-12-19T03:53:42.001Z,99.60
2023-12-19T03:56:44.713Z,99.56
2023-12-19T03:59:47.369Z,100.00
2023-12-19T04:02:50.042Z,100.00
2023-12-19T04:05:52.825Z,100.00
2023-12-19T04:08:55.623Z,99.90
2023-12-19T04:12:03.415Z,99.15
2023-12-19T04:15:06.505Z,97.83
2023-12-19T04:18:11.746Z,98.62
2023-12-19T04:21:14.515Z,99.18
2023-12-19T04:24:17.871Z,99.00
2023-12-19T04:27:20.517Z,99.84
2023-12-19T04:30:23.408Z,100.00
2023-12-19T04:33:26.247Z,100.00
2023-12-19T04:36:30.933Z,99.54
2023-12-19T04:39:33.630Z,99.36
2023-12-19T04:42:36.835Z,99.91
2023-12-19T04:45:39.535Z,99.96
2023-12-19T04:48:43.864Z,100.00
2023-12-19T04:51:46.816Z,99.61
2023-12-19T04:54:49.712Z,99.98
2023-12-19T04:57:52.438Z,100.00
2023-12-19T05:00:55.291Z,99.42
2023-12-19T05:03:58.061Z,99.31
2023-12-19T05:07:00.867Z,100.00
2023-12-19T05:10:05.685Z,100.00
2023-12-19T05:13:11.246Z,100.00
2023-12-19T05:16:15.054Z,100.00
2023-12-19T05:19:17.962Z,100.00
2023-12-19T05:22:21.356Z,100.00
2023-12-19T05:25:24.134Z,99.88
2023-12-19T05:28:26.811Z,98.97
2023-12-19T05:31:29.573Z,99.06
2023-12-19T05:34:32.510Z,98.68
2023-12-19T05:37:35.379Z,100.00
2023-12-19T05:40:43.189Z,99.63
2023-12-19T05:43:45.899Z,99.52
2023-12-19T05:46:48.721Z,98.63
2023-12-19T05:49:51.586Z,97.85
2023-12-19T05:52:54.493Z,98.65
2023-12-19T05:55:57.274Z,97.65
2023-12-19T05:59:00.285Z,98.46
2023-12-19T06:02:03.104Z,98.89
2023-12-19T06:05:09.475Z,98.58
2023-12-19T06:08:12.206Z,97.77
2023-12-19T06:11:16.285Z,97.60
2023-12-19T06:14:19.031Z,97.75
2023-12-19T06:17:22.133Z,98.79
2023-12-19T06:20:24.843Z,99.21
2023-12-19T06:23:28.659Z,99.87
2023-12-19T06:26:31.412Z,100.00
2023-12-19T06:29:34.142Z,100.00
2023-12-19T06:32:37.795Z,100.00
2023-12-19T06:35:42.460Z,100.00
2023-12-19T06:38:45.109Z,100.00
2023-12-19T06:41:47.836Z,99.03
2023-12-19T06:44:50.963Z,99.10
2023-12-19T06:47:53.755Z,100.00
2023-12-19T06:50:56.735Z,100.00
2023-12-19T06:53:59.433Z,99.18
2023-12-19T06:57:02.191Z,98.86
2023-12-19T07:00:07.445Z,97.89
2023-12-19T07:03:10.352Z,97.83
2023-12-19T07:06:15.218Z,97.81
2023-12-19T07:09:18.049Z,97.47
2023-12-19T07:12:20.810Z,96.73
2023-12-19T07:15:23.875Z,96.46
2023-12-19T07:18:26.737Z,96.96
2023-12-19T07:21:30.934Z,96.61
2023-12-19T07:24:33.846Z,95.94
2023-12-19T07:27:38.424Z,96.73
2023-12-19T07:30:42.099Z,95.72
2023-12-19T07:33:45.042Z,95.07
2023-12-19T07:36:47.995Z,95.35
2023-12-19T07:39:50.919Z,95.62
2023-12-19T07:42:53.668Z,95.61
2023-12-19T07:45:58.899Z,95.80
2023-12-19T07:49:02.032Z,95.93
2023-12-19T07:52:05.644Z,96.76
2023-12-19T07:55:12.224Z,96.81
2023-12-19T07:58:15.228Z,96.57
2023-12-19T08:01:18.416Z,96.72
2023-12-19T08:04:21.621Z,97.26
2023-12-19T08:07:24.399Z,97.17
2023-12-19T08:10:28.067Z,96.99
2023-12-19T08:13:30.949Z,96.76
2023-12-19T08:16:33.960Z,96.67
2023-12-19T08:19:39.222Z,96.28
2023-12-19T08:22:43.501Z,96.76
2023-12-19T08:25:46.305Z,97.76
2023-12-19T08:28:49.693Z,97.49
2023-12-19T08:31:52.517Z,97.17
2023-12-19T08:34:55.517Z,96.67
2023-12-19T08:37:58.534Z,96.61
2023-12-19T08:41:01.611Z,96.69
2023-12-19T08:44:04.641Z,96.35
2023-12-19T08:47:07.467Z,96.08
2023-12-19T08:50:12.012Z,95.09
2023-12-19T08:53:15.191Z,95.16
2023-12-19T08:56:18.341Z,94.66
2023-12-19T08:59:21.247Z,94.13
2023-12-19T09:02:24.140Z,95.18
2023-12-19T09:05:27.230Z,96.85
2023-12-19T09:08:30.338Z,97.75
2023-12-19T09:11:35.184Z,96.98
2023-12-19T09:14:38.518Z,97.33
2023-12-19T09:17:42.585Z,96.11
2023-12-19T09:20:45.749Z,96.03
2023-12-19T09:23:48.929Z,95.90
2023-12-19T09:26:52.010Z,96.68
2023-12-19T09:29:54.774Z,96.48
2023-12-19T09:32:59.209Z,95.55
2023-12-19T09:36:02.489Z,95.14
2023-12-19T09:39:05.924Z,94.47
2023-12-19T09:42:09.065Z,94.95
2023-12-19T09:45:13.790Z,95.37
2023-12-19T09:48:17.118Z,95.30
2023-12-19T09:51:32.024Z,95.29
2023-12-19T09:54:36.540Z,95.24
2023-12-19T09:57:42.659Z,94.95
2023-12-19T10:00:47.049Z,95.33
2023-12-19T10:03:51.710Z,96.15
2023-12-19T10:07:00.527Z,97.42
2023-12-19T10:10:04.627Z,98.59
2023-12-19T10:13:07.981Z,96.74
2023-12-19T10:16:30.876Z,95.96
2023-12-19T10:19:36.732Z,95.19
2023-12-19T10:22:39.985Z,94.33
2023-12-19T10:25:46.465Z,93.79
2023-12-19T10:28:58.639Z,93.55
2023-12-19T10:32:12.675Z,92.13
2023-12-19T10:35:15.790Z,92.89
2023-12-19T10:38:18.892Z,93.21
2023-12-19T10:41:34.836Z,93.35
2023-12-19T10:44:40.676Z,93.28
2023-12-19T10:47:43.908Z,93.64
2023-12-19T10:50:48.521Z,93.94
2023-12-19T10:54:00.574Z,93.91
2023-12-19T10:57:08.449Z,93.78
2023-12-19T11:00:18.985Z,93.65
2023-12-19T11:03:35.044Z,93.81
2023-12-19T11:06:39.305Z,94.17
2023-12-19T11:09:45.289Z,94.14
2023-12-19T11:12:48.573Z,94.16
2023-12-19T11:15:57.013Z,94.39
2023-12-19T11:19:09.994Z,93.86
2023-12-19T11:22:20.030Z,94.25
2023-12-19T11:25:36.015Z,93.21
2023-12-19T11:28:40.176Z,93.50
2023-12-19T11:31:43.218Z,93.71
2023-12-19T11:34:46.138Z,93.17
2023-12-19T11:37:49.477Z,92.57
2023-12-19T11:40:53.359Z,92.83
2023-12-19T11:43:56.520Z,92.03
2023-12-19T11:47:16.315Z,91.87
2023-12-19T11:50:41.155Z,90.29
2023-12-19T11:53:44.377Z,89.04
2023-12-19T11:56:59.032Z,89.10
2023-12-19T12:00:02.873Z,91.18
2023-12-19T12:03:14.791Z,91.99
2023-12-19T12:06:22.366Z,91.46
2023-12-19T12:09:26.677Z,91.31
2023-12-19T12:12:36.898Z,90.33
2023-12-19T12:15:39.900Z,91.47
2023-12-19T12:18:44.563Z,90.93
2023-12-19T12:21:51.812Z,90.27
2023-12-19T12:24:55.287Z,91.15
2023-12-19T12:28:11.377Z,91.55
2023-12-19T12:31:15.352Z,92.01
2023-12-19T12:34:18.696Z,92.94
2023-12-19T12:37:25.886Z,92.34
2023-12-19T12:40:31.112Z,91.40
2023-12-19T12:43:51.607Z,91.19
2023-12-19T12:46:54.677Z,90.56
2023-12-19T12:50:08.352Z,90.71
2023-12-19T12:53:17.825Z,90.55
2023-12-19T12:56:21.280Z,90.51
2023-12-19T12:59:30.349Z,90.31
2023-12-19T13:02:40.655Z,90.83
2023-12-19T13:05:44.356Z,91.53
2023-12-19T13:08:47.829Z,91.67
2023-12-19T13:11:55.823Z,92.21
2023-12-19T13:14:59.164Z,91.59
2023-12-19T13:18:05.691Z,92.29
2023-12-19T13:21:09.712Z,92.06
2023-12-19T13:24:16.002Z,92.02
2023-12-19T13:27:27.312Z,91.69
2023-12-19T13:30:32.874Z,91.83
2023-12-19T13:33:36.532Z,91.52
2023-12-19T13:36:42.684Z,91.66
2023-12-19T13:39:49.752Z,91.45
2023-12-19T13:42:59.700Z,91.83
2023-12-19T13:46:07.183Z,91.32
2023-12-19T13:49:23.157Z,91.82
2023-12-19T13:52:32.934Z,92.04
2023-12-19T13:55:42.423Z,92.35
2023-12-19T13:58:47.486Z,91.83
2023-12-19T14:01:57.067Z,92.11
2023-12-19T14:05:06.921Z,92.20
2023-12-19T14:08:12.553Z,92.80
2023-12-19T14:11:16.028Z,92.50
2023-12-19T14:14:22.325Z,92.31
2023-12-19T14:17:25.261Z,92.04
2023-12-19T14:20:30.341Z,92.54
2023-12-19T14:23:36.020Z,92.69
2023-12-19T14:26:41.212Z,92.45
2023-12-19T14:29:46.239Z,92.80
2023-12-19T14:32:50.181Z,92.16
2023-12-19T14:35:55.682Z,92.44
2023-12-19T14:38:58.623Z,92.76
2023-12-19T14:42:03.085Z,92.69
2023-12-19T14:45:06.926Z,93.21
2023-12-19T14:48:10.997Z,93.36
2023-12-19T14:51:18.675Z,93.25
2023-12-19T14:54:21.941Z,92.91
2023-12-19T14:57:27.099Z,92.11
2023-12-19T15:00:31.101Z,92.87
2023-12-19T15:03:34.487Z,93.22
2023-12-19T15:06:39.101Z,93.83
2023-12-19T15:09:44.990Z,93.65
2023-12-19T15:12:48.814Z,93.80
2023-12-19T15:15:53.301Z,93.81
2023-12-19T15:18:56.866Z,93.42
2023-12-19T15:22:00.903Z,93.58
2023-12-19T15:25:05.991Z,93.82
2023-12-19T15:28:17.211Z,94.11
2023-12-19T15:31:24.182Z,94.27
2023-12-19T15:34:31.704Z,94.08
2023-12-19T15:37:34.994Z,94.66
2023-12-19T15:40:37.981Z,94.17
2023-12-19T15:43:42.823Z,94.51
2023-12-19T15:46:48.856Z,94.68
2023-12-19T15:49:52.282Z,94.42
2023-12-19T15:52:56.856Z,94.26
2023-12-19T15:56:00.454Z,94.07
2023-12-19T15:59:05.558Z,94.67
2023-12-19T16:02:11.955Z,94.61
2023-12-19T16:05:15.959Z,95.07
2023-12-19T16:08:19.040Z,94.87
2023-12-19T16:11:25.651Z,95.26
2023-12-19T16:14:28.891Z,94.51
2023-12-19T16:17:32.402Z,94.48
2023-12-19T16:20:37.729Z,95.03
2023-12-19T16:23:53.101Z,95.60
2023-12-19T16:27:04.473Z,95.25
2023-12-19T16:30:08.166Z,95.06
2023-12-19T16:33:13.320Z,95.36
2023-12-19T16:36:16.431Z,95.05
2023-12-19T16:39:19.245Z,94.44
2023-12-19T16:42:22.879Z,95.27
2023-12-19T16:45:26.043Z,95.61
2023-12-19T16:48:29.333Z,94.73
2023-12-19T16:51:34.070Z,95.83
2023-12-19T16:54:38.039Z,96.06
2023-12-19T16:57:44.138Z,95.66
2023-12-19T17:00:47.294Z,95.09
2023-12-19T17:03:51.095Z,95.52
2023-12-19T17:06:54.993Z,96.56
2023-12-19T17:09:58.341Z,96.68
2023-12-19T17:13:02.113Z,96.07
2023-12-19T17:16:07.781Z,95.49
2023-12-19T17:19:11.143Z,95.46
2023-12-19T17:22:16.478Z,95.38
2023-12-19T17:25:19.515Z,94.77
2023-12-19T17:28:23.363Z,94.89
2023-12-19T17:31:26.781Z,95.15
2023-12-19T17:34:31.118Z,95.40
2023-12-19T17:37:35.331Z,95.58
2023-12-19T17:40:44.307Z,95.37
2023-12-19T17:43:48.328Z,95.61
2023-12-19T17:46:54.118Z,95.88
2023-12-19T17:49:57.504Z,96.69
2023-12-19T17:53:01.287Z,95.41
2023-12-19T17:56:04.842Z,96.01
2023-12-19T17:59:10.372Z,95.35
2023-12-19T18:02:13.889Z,95.78
2023-12-19T18:05:20.157Z,95.65
2023-12-19T18:08:24.307Z,95.39
2023-12-19T18:11:30.158Z,96.30
2023-12-19T18:14:33.782Z,96.42
2023-12-19T18:17:37.384Z,96.55
2023-12-19T18:20:47.416Z,95.77
2023-12-19T18:23:50.768Z,95.87
2023-12-19T18:26:54.203Z,95.88
2023-12-19T18:29:57.428Z,96.28
2023-12-19T18:33:03.840Z,95.87
2023-12-19T18:36:07.703Z,95.79
2023-12-19T18:39:12.132Z,95.83
2023-12-19T18:42:17.066Z,95.45
2023-12-19T18:45:20.056Z,95.14
2023-12-19T18:48:23.327Z,95.54
2023-12-19T18:51:26.512Z,95.03
2023-12-19T18:54:29.566Z,94.47
2023-12-19T18:57:32.516Z,94.89
2023-12-19T19:00:38.510Z,95.66
2023-12-19T19:03:42.174Z,95.52
2023-12-19T19:06:45.149Z,95.55
2023-12-19T19:09:48.524Z,95.22
2023-12-19T19:12:54.889Z,94.99
2023-12-19T19:15:58.678Z,95.52
2023-12-19T19:19:02.710Z,95.52
2023-12-19T19:22:06.216Z,95.54
2023-12-19T19:25:11.984Z,95.48
2023-12-19T19:28:18.046Z,95.78
2023-12-19T19:31:21.482Z,95.66
2023-12-19T19:34:26.800Z,95.57
2023-12-19T19:37:30.857Z,96.38
2023-12-19T19:40:39.253Z,95.90
2023-12-19T19:43:48.610Z,96.14
2023-12-19T19:46:51.532Z,96.09
2023-12-19T19:49:54.510Z,96.60
2023-12-19T19:53:07.322Z,95.39
2023-12-19T19:56:10.849Z,96.01
2023-12-19T19:59:15.561Z,95.68
2023-12-19T20:02:18.349Z,96.24
2023-12-19T20:05:22.247Z,95.43
2023-12-19T20:08:26.343Z,96.34
2023-12-19T20:11:30.576Z,96.62
2023-12-19T20:14:33.659Z,96.47
2023-12-19T20:17:36.629Z,96.31
2023-12-19T20:20:40.330Z,95.41
2023-12-19T20:23:43.179Z,96.31
2023-12-19T20:26:45.966Z,95.90
2023-12-19T20:29:48.876Z,96.18
2023-12-19T20:32:51.921Z,96.14
2023-12-19T20:35:54.878Z,96.05
2023-12-19T20:38:57.882Z,97.10
2023-12-19T20:42:00.916Z,96.84
2023-12-19T20:45:04.121Z,97.66
2023-12-19T20:48:07.523Z,97.80
2023-12-19T20:51:10.611Z,97.25
2023-12-19T20:54:14.071Z,96.84
2023-12-19T20:57:16.815Z,96.65
2023-12-19T21:00:20.364Z,97.22
2023-12-19T21:03:23.444Z,100.00
2023-12-19T21:06:26.369Z,100.00
2023-12-19T21:09:29.342Z,100.00
2023-12-19T21:12:32.363Z,100.00
2023-12-19T21:15:36.317Z,100.00
2023-12-19T21:18:39.214Z,100.00
2023-12-19T21:21:42.133Z,100.00
2023-12-19T21:24:44.958Z,100.00
2023-12-19T21:27:47.920Z,100.00
2023-12-19T21:30:50.967Z,100.00
2023-12-19T21:33:53.855Z,100.00
2023-12-19T21:36:56.809Z,100.00
2023-12-19T21:40:00.378Z,100.00
2023-12-19T21:43:03.738Z,100.00
2023-12-19T21:46:06.707Z,100.00
2023-12-19T21:49:10.201Z,100.00
2023-12-19T21:52:13.361Z,100.00
2023-12-19T21:55:16.225Z,100.00
2023-12-19T21:58:19.082Z,98.88
2023-12-19T22:01:22.386Z,99.05
2023-12-19T22:04:25.517Z,99.84
2023-12-19T22:07:28.528Z,100.00
2023-12-19T22:10:31.498Z,99.35
2023-12-19T22:13:34.267Z,99.58
2023-12-19T22:16:37.053Z,99.67
2023-12-19T22:19:40.157Z,99.36
2023-12-19T22:22:43.501Z,99.32
2023-12-19T22:25:46.294Z,100.00
2023-12-19T22:28:49.556Z,100.00
2023-12-19T22:31:53.226Z,100.00
2023-12-19T22:34:56.021Z,100.00
2023-12-19T22:38:03.250Z,100.00
2023-12-19T22:41:06.358Z,99.93
2023-12-19T22:44:09.048Z,99.85
2023-12-19T22:47:11.859Z,99.57
2023-12-19T22:50:14.593Z,99.43
2023-12-19T22:53:17.342Z,99.41
2023-12-19T22:56:20.781Z,100.00
2023-12-19T22:59:23.502Z,100.00
2023-12-19T23:02:26.358Z,100.00
2023-12-19T23:05:29.774Z,100.00
2023-12-19T23:08:32.479Z,100.00
2023-12-19T23:11:35.151Z,100.00
2023-12-19T23:14:41.972Z,100.00
2023-12-19T23:17:44.860Z,100.00
2023-12-19T23:20:47.802Z,100.00
2023-12-19T23:23:51.582Z,100.00
2023-12-19T23:26:54.818Z,100.00
2023-12-19T23:29:57.773Z,100.00
2023-12-19T23:33:00.498Z,100.00
2023-12-19T23:36:04.036Z,100.00
2023-12-19T23:39:06.909Z,99.78
2023-12-19T23:42:09.686Z,100.00
2023-12-19T23:45:12.474Z,99.81
2023-12-19T23:48:15.369Z,99.72
2023-12-19T23:51:18.792Z,99.81
2023-12-19T23:54:21.541Z,99.66
2023-12-19T23:57:24.418Z,99.85
